Time;durP1;ratioP1;P1;durP2;ratioP2;P2;SDS_P1;SDS_P2;PMS_P1;PMS_P2;Temp;Humidity;BMP_temperature;BMP_pressure;BME280_temperature;BME280_humidity;BME280_pressure;Samples;Min_cycle;Max_cycle;Signal;HPM_P1;HPM_P2
2022/07/18 00:01:16;;;;;;;0.50;0.50;;;16.50;99.90;;;;;;5053045;28;20621;-74
2022/07/18 00:04:04;;;;;;;0.40;0.40;;;16.50;99.90;;;;;;5054070;28;20224;-73
2022/07/18 00:06:53;;;;;;;0.50;0.50;;;16.50;99.90;;;;;;5053740;28;20201;-74
2022/07/18 00:09:42;;;;;;;0.40;0.40;;;16.60;99.90;;;;;;5055769;28;20672;-75
2022/07/18 00:12:31;;;;;;;0.40;0.40;;;16.60;99.90;;;;;;5052109;28;20204;-72
2022/07/18 00:15:21;;;;;;;0.50;0.50;;;16.70;99.90;;;;;;5054493;28;20217;-76
2022/07/18 00:18:09;;;;;;;0.50;0.50;;;16.70;99.90;;;;;;5054201;28;20201;-77
2022/07/18 00:20:57;;;;;;;0.40;0.40;;;16.80;99.90;;;;;;5054851;28;20212;-76
2022/07/18 00:23:46;;;;;;;0.50;0.50;;;16.80;99.90;;;;;;5054001;28;20240;-74
2022/07/18 00:26:34;;;;;;;0.40;0.40;;;16.80;99.90;;;;;;5054306;28;20197;-73
2022/07/18 00:29:22;;;;;;;0.50;0.50;;;16.70;99.90;;;;;;5054097;28;20198;-77
2022/07/18 00:32:12;;;;;;;0.50;0.50;;;16.80;99.90;;;;;;5054468;28;20212;-74
2022/07/18 00:35:00;;;;;;;0.45;0.45;;;16.70;99.90;;;;;;5054904;28;20213;-74
2022/07/18 00:37:48;;;;;;;0.50;0.50;;;16.70;99.90;;;;;;5053172;28;20262;-75
2022/07/18 00:40:36;;;;;;;0.45;0.45;;;16.70;99.90;;;;;;5052345;28;20697;-76
2022/07/18 00:43:25;;;;;;;0.40;0.40;;;16.60;99.90;;;;;;5058412;28;20209;-74
2022/07/18 00:46:13;;;;;;;0.40;0.40;;;16.50;99.90;;;;;;5054107;28;20229;-75
2022/07/18 00:49:03;;;;;;;1.27;1.27;;;16.40;99.90;;;;;;5053348;28;20213;-74
2022/07/18 00:51:51;;;;;;;0.43;0.43;;;16.30;99.90;;;;;;5053475;28;20197;-76
2022/07/18 00:54:39;;;;;;;0.50;0.50;;;16.20;99.90;;;;;;5061213;28;20225;-72
2022/07/18 00:57:28;;;;;;;0.40;0.40;;;16.10;99.90;;;;;;5077369;28;20203;-72
2022/07/18 01:03:22;;;;;;;0.40;0.40;;;16.00;99.90;;;;;;5077776;28;20283;-76
2022/07/18 01:06:12;;;;;;;0.45;0.45;;;15.90;99.90;;;;;;5078001;28;20724;-75
2022/07/18 01:09:00;;;;;;;0.40;0.40;;;15.90;99.90;;;;;;5077139;28;20209;-76
2022/07/18 01:11:49;;;;;;;0.40;0.40;;;15.90;99.90;;;;;;5076148;28;20696;-73
2022/07/18 01:14:38;;;;;;;0.50;0.50;;;15.80;99.90;;;;;;5079645;28;20334;-73
2022/07/18 01:17:26;;;;;;;0.40;0.40;;;15.80;99.90;;;;;;5079523;28;20208;-75
2022/07/18 01:20:22;;;;;;;0.43;0.43;;;15.80;99.90;;;;;;5076700;28;20208;-76
2022/07/18 01:23:11;;;;;;;0.40;0.40;;;15.70;99.90;;;;;;5077817;28;20205;-75
2022/07/18 01:25:59;;;;;;;0.40;0.40;;;15.70;99.90;;;;;;5077299;28;20229;-75
2022/07/18 01:28:48;;;;;;;0.40;0.40;;;15.60;99.90;;;;;;5078302;28;20220;-76
2022/07/18 01:31:37;;;;;;;0.50;0.50;;;15.60;99.90;;;;;;5077957;28;20212;-73
2022/07/18 01:34:25;;;;;;;0.40;0.40;;;15.60;99.90;;;;;;5077308;28;20641;-73
2022/07/18 01:37:15;;;;;;;0.50;0.50;;;15.60;99.90;;;;;;5081287;28;20211;-74
2022/07/18 01:40:08;;;;;;;0.40;0.40;;;15.50;99.90;;;;;;5089852;28;20205;-73
2022/07/18 01:42:57;;;;;;;0.40;0.40;;;15.50;99.90;;;;;;5094858;28;20212;-76
2022/07/18 01:45:45;;;;;;;0.50;0.50;;;15.40;99.90;;;;;;5093384;28;20211;-72
2022/07/18 01:48:34;;;;;;;0.50;0.50;;;15.40;99.90;;;;;;5089553;28;20216;-74
2022/07/18 01:51:22;;;;;;;0.50;0.50;;;15.30;99.90;;;;;;5086855;28;20711;-76
2022/07/18 01:54:10;;;;;;;0.40;0.40;;;15.30;99.90;;;;;;5093400;28;20616;-75
2022/07/18 01:57:01;;;;;;;0.50;0.50;;;15.20;99.90;;;;;;5089961;28;20554;-74
2022/07/18 01:59:49;;;;;;;0.40;0.40;;;15.20;99.90;;;;;;5085472;28;20529;-76
2022/07/18 02:02:38;;;;;;;0.40;0.40;;;15.00;99.90;;;;;;5090821;28;20213;-76
2022/07/18 02:05:26;;;;;;;0.50;0.50;;;15.00;99.90;;;;;;5087606;28;20224;-75
2022/07/18 02:08:14;;;;;;;0.40;0.40;;;14.90;99.90;;;;;;5088687;28;20209;-74
2022/07/18 02:11:03;;;;;;;0.40;0.40;;;14.90;99.90;;;;;;5084944;28;20200;-74
2022/07/18 02:13:52;;;;;;;0.40;0.40;;;14.90;99.90;;;;;;5078121;28;20231;-73
2022/07/18 02:16:41;;;;;;;0.50;0.50;;;14.90;99.90;;;;;;5079947;28;20604;-74
2022/07/18 02:19:29;;;;;;;0.50;0.50;;;14.80;99.90;;;;;;5080047;28;20197;-73
2022/07/18 02:22:17;;;;;;;0.43;0.43;;;14.80;99.90;;;;;;5077290;28;20205;-75
2022/07/18 02:25:07;;;;;;;0.43;0.43;;;14.70;99.90;;;;;;5076370;28;20233;-74
2022/07/18 02:27:55;;;;;;;0.50;0.50;;;14.70;99.90;;;;;;5079190;28;20274;-73
2022/07/18 02:30:45;;;;;;;0.40;0.40;;;14.70;99.90;;;;;;5076172;28;20205;-76
2022/07/18 02:33:33;;;;;;;0.50;0.50;;;14.60;99.90;;;;;;5077381;28;20287;-74
2022/07/18 02:36:22;;;;;;;0.40;0.40;;;14.60;99.90;;;;;;5078017;28;20197;-74
2022/07/18 02:39:10;;;;;;;0.50;0.50;;;14.50;99.90;;;;;;5082658;28;20200;-74
2022/07/18 02:41:59;;;;;;;0.40;0.40;;;14.50;99.90;;;;;;5081304;28;20207;-71
2022/07/18 02:44:47;;;;;;;0.50;0.50;;;14.40;99.90;;;;;;5077470;28;20225;-74
2022/07/18 02:47:36;;;;;;;0.40;0.40;;;14.40;99.90;;;;;;5079005;28;20213;-76
2022/07/18 02:50:25;;;;;;;0.50;0.50;;;14.20;99.90;;;;;;5078211;28;20204;-72
2022/07/18 02:53:13;;;;;;;0.50;0.50;;;14.20;99.90;;;;;;5086952;28;20208;-73
2022/07/18 02:56:01;;;;;;;0.50;0.50;;;14.20;99.90;;;;;;5081282;28;20193;-72
2022/07/18 02:58:49;;;;;;;0.50;0.50;;;14.10;99.90;;;;;;5080396;28;20700;-74
2022/07/18 03:01:37;;;;;;;0.50;0.50;;;14.10;99.90;;;;;;5076459;28;20442;-74
2022/07/18 03:04:27;;;;;;;0.40;0.40;;;14.10;99.90;;;;;;5076770;28;20712;-75
2022/07/18 03:07:15;;;;;;;0.50;0.50;;;14.10;99.90;;;;;;5077750;28;20216;-72
2022/07/18 03:10:05;;;;;;;0.50;0.50;;;14.10;99.90;;;;;;5077981;28;20223;-74
2022/07/18 03:12:53;;;;;;;0.50;0.50;;;14.10;99.90;;;;;;5077488;28;20236;-74
2022/07/18 03:15:41;;;;;;;0.50;0.50;;;14.10;99.90;;;;;;5080107;28;20605;-75
2022/07/18 03:18:30;;;;;;;0.40;0.40;;;14.10;99.90;;;;;;5079173;28;20283;-71
2022/07/18 03:21:19;;;;;;;0.50;0.50;;;14.10;99.90;;;;;;5075034;28;20223;-72
2022/07/18 03:24:07;;;;;;;0.43;0.43;;;14.10;99.90;;;;;;5078923;28;20235;-77
2022/07/18 03:26:56;;;;;;;0.40;0.40;;;14.00;99.90;;;;;;5083868;28;20231;-74
2022/07/18 03:29:44;;;;;;;0.50;0.50;;;14.00;99.90;;;;;;5076741;28;20200;-73
2022/07/18 03:32:32;;;;;;;0.40;0.40;;;14.00;99.90;;;;;;5076037;28;20207;-76
2022/07/18 03:35:20;;;;;;;0.50;0.50;;;13.90;99.90;;;;;;5075842;28;20566;-75
2022/07/18 03:38:10;;;;;;;0.40;0.40;;;13.90;99.90;;;;;;5077040;28;20200;-75
2022/07/18 03:40:58;;;;;;;0.50;0.50;;;14.00;99.90;;;;;;5080256;28;20204;-76
2022/07/18 03:43:46;;;;;;;0.40;0.40;;;14.00;99.90;;;;;;5076992;28;20227;-73
2022/07/18 03:46:35;;;;;;;0.50;0.50;;;14.00;99.90;;;;;;5080144;28;20216;-73
2022/07/18 03:49:24;;;;;;;0.50;0.50;;;14.00;99.90;;;;;;5076924;28;20280;-74
2022/07/18 03:52:12;;;;;;;0.47;0.47;;;14.10;99.90;;;;;;5080587;28;20266;-74
2022/07/18 03:55:02;;;;;;;0.50;0.50;;;14.10;99.90;;;;;;5075631;28;20220;-75
2022/07/18 03:57:51;;;;;;;0.40;0.40;;;14.10;99.90;;;;;;5072493;28;20697;-74
2022/07/18 04:00:39;;;;;;;0.70;0.70;;;14.10;99.90;;;;;;5074943;28;20427;-71
2022/07/18 04:03:27;;;;;;;0.40;0.40;;;14.20;99.90;;;;;;5078867;28;20196;-72
2022/07/18 04:06:15;;;;;;;0.50;0.50;;;14.20;99.90;;;;;;5074190;28;20228;-76
2022/07/18 04:09:04;;;;;;;0.40;0.40;;;14.20;99.90;;;;;;5076640;28;20196;-72
2022/07/18 04:11:54;;;;;;;0.50;0.50;;;14.20;99.90;;;;;;5081512;28;20200;-73
2022/07/18 04:14:42;;;;;;;0.50;0.50;;;14.30;99.90;;;;;;5082064;28;20220;-71
2022/07/18 04:17:31;;;;;;;0.40;0.40;;;14.30;99.90;;;;;;5062725;28;20189;-74
2022/07/18 04:20:22;;;;;;;0.40;0.40;;;14.40;99.90;;;;;;5055206;28;20287;-75
2022/07/18 04:23:11;;;;;;;0.40;0.40;;;14.40;99.90;;;;;;5057097;28;20208;-73
2022/07/18 04:26:01;;;;;;;0.40;0.40;;;14.60;99.90;;;;;;5080822;22;20488;-71
2022/07/18 04:28:50;;;;;;;0.40;0.40;;;14.50;99.90;;;;;;5057595;28;20232;-69
2022/07/18 04:31:38;;;;;;;0.40;0.40;;;14.60;99.90;;;;;;5057227;28;20209;-71
2022/07/18 04:34:27;;;;;;;0.40;0.40;;;14.60;99.90;;;;;;5058328;28;20197;-70
2022/07/18 04:37:15;;;;;;;0.40;0.40;;;14.70;99.90;;;;;;5058804;28;20594;-70
2022/07/18 04:40:04;;;;;;;0.40;0.40;;;14.80;99.90;;;;;;5058235;28;20204;-69
2022/07/18 04:42:52;;;;;;;0.40;0.40;;;14.90;99.90;;;;;;5057555;28;20216;-70
2022/07/18 04:45:42;;;;;;;0.40;0.40;;;15.00;99.90;;;;;;5058654;28;20221;-70
2022/07/18 04:48:30;;;;;;;0.40;0.40;;;15.00;99.90;;;;;;5056798;28;20225;-70
2022/07/18 04:51:18;;;;;;;0.40;0.40;;;15.10;99.90;;;;;;5058654;28;20281;-69
2022/07/18 04:54:08;;;;;;;0.40;0.40;;;15.20;99.90;;;;;;5056985;28;20197;-71
2022/07/18 04:56:56;;;;;;;0.40;0.40;;;15.30;99.90;;;;;;5057228;28;20209;-70
2022/07/18 04:59:44;;;;;;;0.40;0.40;;;15.40;99.90;;;;;;5057552;28;20591;-70
2022/07/18 05:02:33;;;;;;;0.40;0.40;;;15.30;99.90;;;;;;5056048;28;20650;-69
2022/07/18 05:05:23;;;;;;;0.40;0.40;;;15.40;99.90;;;;;;5056480;28;20217;-69
2022/07/18 05:08:12;;;;;;;2.83;2.63;;;15.50;99.90;;;;;;5056033;28;20223;-70
2022/07/18 05:11:00;;;;;;;0.40;0.40;;;15.50;99.90;;;;;;5055324;28;20242;-69
2022/07/18 05:13:48;;;;;;;0.50;0.50;;;15.60;99.90;;;;;;5055489;28;20246;-70
2022/07/18 05:16:36;;;;;;;0.40;0.40;;;15.70;99.90;;;;;;5056640;28;20232;-69
2022/07/18 05:19:26;;;;;;;0.40;0.40;;;15.70;99.90;;;;;;5056140;28;20220;-69
2022/07/18 05:22:14;;;;;;;0.40;0.40;;;15.80;99.90;;;;;;5055531;28;20197;-70
2022/07/18 05:25:03;;;;;;;0.40;0.40;;;15.90;99.90;;;;;;5056139;28;20563;-70
2022/07/18 05:27:52;;;;;;;0.40;0.40;;;15.90;99.90;;;;;;5055550;28;20220;-69
2022/07/18 05:30:40;;;;;;;0.40;0.40;;;16.00;99.90;;;;;;5055201;28;20197;-70
2022/07/18 05:33:28;;;;;;;0.40;0.40;;;16.10;99.90;;;;;;5056244;28;20662;-70
2022/07/18 05:36:24;;;;;;;0.40;0.40;;;16.20;99.90;;;;;;5055619;28;20213;-70
2022/07/18 05:39:13;;;;;;;0.40;0.40;;;16.30;99.90;;;;;;5054911;28;20201;-70
2022/07/18 05:42:01;;;;;;;0.50;0.50;;;16.40;99.90;;;;;;5057560;28;20197;-70
2022/07/18 05:44:49;;;;;;;0.40;0.40;;;16.60;99.90;;;;;;5056729;28;20201;-70
2022/07/18 05:47:37;;;;;;;0.40;0.40;;;16.60;99.90;;;;;;5056432;28;20224;-70
2022/07/18 05:50:27;;;;;;;0.40;0.40;;;16.70;99.90;;;;;;5055759;28;20254;-69
2022/07/18 05:53:16;;;;;;;0.40;0.40;;;16.70;99.90;;;;;;5056324;28;20197;-70
2022/07/18 05:56:06;;;;;;;0.40;0.40;;;16.90;99.90;;;;;;5056273;28;20221;-69
2022/07/18 05:58:54;;;;;;;0.40;0.40;;;17.00;99.90;;;;;;5056635;28;20550;-70
2022/07/18 06:01:42;;;;;;;0.40;0.40;;;17.10;99.90;;;;;;5055295;28;20205;-69
2022/07/18 06:04:31;;;;;;;0.40;0.40;;;17.20;99.90;;;;;;5056124;28;20279;-69
2022/07/18 06:07:19;;;;;;;0.40;0.40;;;17.30;99.90;;;;;;5056054;28;20232;-69
2022/07/18 06:10:10;;;;;;;0.40;0.40;;;17.50;99.90;;;;;;5056831;28;20200;-70
2022/07/18 06:12:58;;;;;;;0.40;0.40;;;17.60;99.90;;;;;;5055516;28;20202;-69
2022/07/18 06:15:46;;;;;;;0.40;0.40;;;17.70;99.90;;;;;;5057038;28;20213;-70
2022/07/18 06:18:34;;;;;;;0.40;0.40;;;17.80;99.90;;;;;;5056503;28;20197;-69
2022/07/18 06:21:23;;;;;;;0.40;0.40;;;18.10;99.90;;;;;;5055059;28;20205;-70
2022/07/18 06:24:11;;;;;;;0.40;0.40;;;18.00;99.90;;;;;;5056343;28;20523;-70
2022/07/18 06:27:01;;;;;;;0.40;0.40;;;18.20;99.90;;;;;;5054220;28;20233;-69
2022/07/18 06:29:49;;;;;;;0.40;0.40;;;18.30;99.90;;;;;;5055273;28;20197;-70
2022/07/18 06:32:38;;;;;;;0.40;0.40;;;18.40;99.90;;;;;;5055648;28;20208;-70
2022/07/18 06:35:26;;;;;;;0.47;0.47;;;18.60;99.90;;;;;;5054238;28;20218;-70
2022/07/18 06:38:15;;;;;;;0.40;0.40;;;18.70;99.90;;;;;;5054612;28;20198;-69
2022/07/18 06:41:03;;;;;;;0.40;0.40;;;18.80;99.90;;;;;;5053675;28;20201;-69
2022/07/18 06:43:52;;;;;;;0.40;0.40;;;18.90;99.90;;;;;;5055966;28;20202;-69
2022/07/18 06:46:40;;;;;;;1.30;1.20;;;19.00;99.90;;;;;;5054630;28;20222;-69
2022/07/18 06:49:29;;;;;;;0.40;0.40;;;19.10;99.90;;;;;;5054328;28;20225;-70
2022/07/18 06:52:17;;;;;;;0.40;0.40;;;19.20;99.90;;;;;;5054631;28;20197;-69
2022/07/18 06:55:06;;;;;;;0.98;0.98;;;19.40;99.90;;;;;;5055608;28;20208;-69
2022/07/18 06:57:54;;;;;;;0.40;0.40;;;19.50;99.90;;;;;;5055990;28;20198;-70
2022/07/18 07:00:43;;;;;;;0.50;0.50;;;19.60;99.90;;;;;;5053574;28;20198;-70
2022/07/18 07:03:31;;;;;;;0.40;0.40;;;19.60;99.90;;;;;;5054905;28;20201;-70
2022/07/18 07:06:20;;;;;;;0.40;0.40;;;19.70;99.90;;;;;;5054472;28;20233;-70
2022/07/18 07:09:08;;;;;;;0.40;0.40;;;19.80;99.90;;;;;;5054687;28;20228;-69
2022/07/18 07:11:56;;;;;;;0.40;0.40;;;19.80;99.90;;;;;;5054442;28;20574;-69
2022/07/18 07:14:44;;;;;;;0.40;0.40;;;19.80;99.90;;;;;;5054760;28;20194;-69
2022/07/18 07:17:33;;;;;;;0.40;0.40;;;19.90;99.90;;;;;;5054060;28;20193;-69
2022/07/18 07:20:22;;;;;;;0.40;0.40;;;20.10;99.90;;;;;;5054868;28;20193;-70
2022/07/18 07:23:10;;;;;;;0.40;0.40;;;20.00;99.90;;;;;;5054561;28;20205;-70
2022/07/18 07:25:58;;;;;;;0.40;0.40;;;20.10;99.90;;;;;;5056170;28;20225;-69
2022/07/18 07:28:46;;;;;;;0.40;0.40;;;20.30;99.90;;;;;;5054497;28;20213;-70
2022/07/18 07:31:34;;;;;;;0.50;0.50;;;20.40;99.90;;;;;;5053404;28;20259;-70
2022/07/18 07:34:24;;;;;;;0.40;0.40;;;20.50;99.90;;;;;;5054272;28;20677;-71
2022/07/18 07:37:12;;;;;;;0.40;0.40;;;20.60;99.90;;;;;;5053993;28;20221;-71
2022/07/18 07:40:01;;;;;;;0.40;0.40;;;20.70;99.90;;;;;;5055213;28;20208;-71
2022/07/18 07:42:49;;;;;;;0.40;0.40;;;20.70;99.90;;;;;;5055265;28;20209;-73
2022/07/18 07:45:37;;;;;;;0.40;0.40;;;20.80;99.90;;;;;;5055781;28;20221;-71
2022/07/18 07:48:26;;;;;;;0.40;0.40;;;21.00;99.90;;;;;;5060111;28;20217;-71
2022/07/18 07:51:15;;;;;;;0.50;0.50;;;21.00;99.90;;;;;;5063471;28;20688;-71
2022/07/18 07:54:09;;;;;;;0.40;0.40;;;21.10;99.90;;;;;;5063543;28;20201;-71
2022/07/18 07:56:57;;;;;;;0.40;0.40;;;21.20;99.90;;;;;;5063997;28;20217;-71
2022/07/18 07:59:45;;;;;;;0.40;0.40;;;21.30;99.90;;;;;;5065884;28;20186;-71
2022/07/18 08:02:33;;;;;;;0.40;0.40;;;21.50;99.90;;;;;;5061397;28;20203;-71
2022/07/18 08:05:22;;;;;;;0.40;0.40;;;21.60;99.90;;;;;;5061781;28;20223;-70
2022/07/18 08:08:11;;;;;;;0.40;0.40;;;21.80;99.90;;;;;;5065017;28;20219;-71
2022/07/18 08:11:00;;;;;;;0.40;0.40;;;22.00;99.90;;;;;;5067218;28;20228;-71
2022/07/18 08:13:48;;;;;;;0.40;0.40;;;22.20;99.90;;;;;;5060770;28;20561;-71
2022/07/18 08:16:36;;;;;;;0.40;0.40;;;22.50;99.90;;;;;;5061350;28;20593;-70
2022/07/18 08:19:24;;;;;;;0.40;0.40;;;22.60;99.90;;;;;;5055002;28;20195;-72
2022/07/18 08:22:12;;;;;;;0.40;0.40;;;22.80;99.90;;;;;;5054263;28;20200;-71
2022/07/18 08:25:02;;;;;;;0.70;0.70;;;22.80;99.90;;;;;;5053992;28;20201;-71
2022/07/18 08:27:50;;;;;;;0.50;0.50;;;22.70;99.20;;;;;;5052736;28;20205;-70
2022/07/18 08:30:40;;;;;;;0.60;0.60;;;22.60;99.30;;;;;;5053182;28;20204;-71
2022/07/18 08:33:28;;;;;;;0.40;0.40;;;22.50;99.90;;;;;;5061667;28;20193;-71
2022/07/18 08:36:16;;;;;;;0.88;0.88;;;22.40;98.20;;;;;;5063944;28;20225;-71
2022/07/18 08:39:04;;;;;;;0.50;0.50;;;22.30;98.80;;;;;;5059103;28;20190;-71
2022/07/18 08:41:56;;;;;;;0.40;0.40;;;22.40;98.20;;;;;;5034167;28;20256;-71
2022/07/18 08:44:49;;;;;;;0.40;0.40;;;22.50;98.80;;;;;;5033833;28;20198;-71
2022/07/18 08:47:37;;;;;;;0.40;0.40;;;22.60;99.20;;;;;;5043689;28;20202;-71
2022/07/18 08:50:26;;;;;;;0.50;0.50;;;22.70;98.40;;;;;;5050915;28;20232;-72
2022/07/18 08:53:16;;;;;;;0.40;0.40;;;22.70;97.40;;;;;;5061019;28;20201;-72
2022/07/18 08:56:06;;;;;;;0.60;0.60;;;22.90;96.90;;;;;;5061443;28;20236;-71
2022/07/18 08:58:55;;;;;;;0.50;0.43;;;23.20;96.30;;;;;;5064186;28;20198;-72
2022/07/18 09:01:43;;;;;;;1.50;0.68;;;23.50;96.00;;;;;;5060332;28;20216;-71
2022/07/18 09:04:36;;;;;;;0.40;0.40;;;23.50;94.80;;;;;;5058761;28;20205;-71
2022/07/18 09:07:27;;;;;;;0.40;0.40;;;23.40;92.10;;;;;;5059593;28;20196;-71
2022/07/18 09:10:16;;;;;;;0.40;0.40;;;23.40;92.90;;;;;;5059944;28;20223;-71
2022/07/18 09:13:04;;;;;;;0.40;0.40;;;23.30;93.40;;;;;;5062805;28;20201;-71
2022/07/18 09:16:01;;;;;;;0.40;0.40;;;23.40;93.10;;;;;;5065284;28;20229;-70
2022/07/18 09:18:50;;;;;;;0.40;0.40;;;23.60;93.00;;;;;;5063243;28;20201;-71
2022/07/18 09:21:38;;;;;;;0.40;0.40;;;24.00;92.70;;;;;;5064049;28;20196;-71
2022/07/18 09:24:27;;;;;;;0.40;0.40;;;24.40;92.60;;;;;;5065751;28;20200;-71
2022/07/18 09:27:24;;;;;;;0.40;0.40;;;24.80;91.50;;;;;;5065221;28;20282;-72
2022/07/18 09:30:21;;;;;;;3.13;1.20;;;25.00;89.10;;;;;;5060033;28;20559;-72
2022/07/18 09:33:11;;;;;;;0.50;0.50;;;25.10;87.20;;;;;;5063751;28;20211;-71
2022/07/18 09:36:00;;;;;;;0.40;0.40;;;25.00;84.00;;;;;;5066540;28;20223;-71
2022/07/18 09:38:48;;;;;;;0.40;0.40;;;25.00;84.60;;;;;;5062251;28;20617;-72
2022/07/18 09:41:36;;;;;;;0.50;0.40;;;25.10;82.70;;;;;;5056248;28;20208;-72
2022/07/18 09:44:24;;;;;;;0.68;0.68;;;25.20;82.00;;;;;;5055106;28;20282;-73
2022/07/18 09:47:12;;;;;;;0.40;0.40;;;25.60;82.80;;;;;;5055556;28;20229;-72
2022/07/18 09:50:02;;;;;;;0.40;0.40;;;25.80;83.50;;;;;;5059611;28;20217;-71
2022/07/18 09:53:12;;;;;;;0.40;0.40;;;26.10;81.70;;;;;;5065316;28;20204;-72
2022/07/18 09:56:24;;;;;;;0.40;0.40;;;26.00;79.10;;;;;;5063688;28;20224;-72
2022/07/18 09:59:13;;;;;;;0.70;0.70;;;26.00;78.50;;;;;;5058797;28;20206;-72
2022/07/18 10:02:02;;;;;;;1.20;1.10;;;25.70;78.90;;;;;;5062126;28;20198;-72
2022/07/18 10:04:51;;;;;;;1.08;0.98;;;25.60;79.50;;;;;;5065805;28;20201;-71
2022/07/18 10:07:41;;;;;;;0.40;0.40;;;25.40;79.90;;;;;;5062846;28;20583;-72
2022/07/18 10:10:30;;;;;;;0.47;0.47;;;25.50;79.60;;;;;;5065355;28;20224;-72
2022/07/18 10:13:21;;;;;;;2.00;1.85;;;25.70;78.80;;;;;;5061576;28;20201;-72
2022/07/18 10:16:09;;;;;;;0.40;0.40;;;25.70;77.30;;;;;;5064361;28;20228;-71
2022/07/18 10:18:59;;;;;;;0.68;0.68;;;25.70;78.30;;;;;;5063455;28;20205;-72
2022/07/18 10:21:49;;;;;;;0.40;0.40;;;25.90;78.50;;;;;;5065864;28;20189;-72
2022/07/18 10:24:41;;;;;;;0.40;0.40;;;25.90;77.50;;;;;;5059880;28;20205;-71
2022/07/18 10:27:48;;;;;;;0.40;0.40;;;25.80;76.70;;;;;;5062866;28;20223;-72
2022/07/18 10:30:39;;;;;;;0.40;0.40;;;25.90;77.20;;;;;;5064945;28;20217;-71
2022/07/18 10:33:45;;;;;;;0.40;0.40;;;25.90;77.50;;;;;;5063116;28;20189;-71
2022/07/18 10:36:34;;;;;;;0.60;0.60;;;26.00;77.70;;;;;;5075348;28;20655;-71
2022/07/18 10:39:33;;;;;;;0.50;0.50;;;26.10;75.80;;;;;;5085245;22;20244;-71
2022/07/18 10:42:24;;;;;;;0.40;0.40;;;26.30;77.00;;;;;;5053525;28;20199;-71
2022/07/18 10:45:44;;;;;;;0.50;0.50;;;26.40;75.80;;;;;;5053470;28;20194;-71
2022/07/18 10:48:52;;;;;;;0.40;0.40;;;26.30;74.80;;;;;;5054062;28;20228;-70
2022/07/18 10:51:40;;;;;;;0.43;0.43;;;26.30;75.60;;;;;;5052172;28;20232;-71
2022/07/18 10:54:29;;;;;;;0.55;0.55;;;26.50;74.80;;;;;;5060943;28;20716;-72
2022/07/18 10:57:17;;;;;;;0.40;0.40;;;26.50;74.80;;;;;;5057140;28;20204;-72
2022/07/18 11:00:08;;;;;;;0.40;0.40;;;26.40;74.20;;;;;;5070341;28;20217;-72
2022/07/18 11:03:05;;;;;;;0.40;0.40;;;26.60;75.20;;;;;;5069049;28;20205;-71
2022/07/18 11:05:55;;;;;;;0.40;0.40;;;27.00;74.90;;;;;;5059992;28;20189;-71
2022/07/18 11:08:43;;;;;;;0.40;0.40;;;27.30;72.90;;;;;;5061028;28;20224;-71
2022/07/18 11:11:31;;;;;;;0.40;0.40;;;27.60;73.10;;;;;;5059674;28;20225;-70
2022/07/18 11:14:57;;;;;;;0.40;0.40;;;28.00;72.30;;;;;;5062015;28;20296;-71
2022/07/18 11:18:01;;;;;;;0.40;0.40;;;28.60;71.80;;;;;;5059551;28;20276;-70
2022/07/18 11:20:51;;;;;;;0.40;0.40;;;29.30;70.00;;;;;;5051413;28;20564;-70
2022/07/18 11:23:44;;;;;;;0.40;0.40;;;29.70;68.80;;;;;;5058568;28;20205;-70
2022/07/18 11:26:34;;;;;;;0.40;0.40;;;29.90;65.40;;;;;;5058188;28;20572;-70
2022/07/18 11:29:22;;;;;;;0.93;0.93;;;29.80;65.30;;;;;;5061397;28;20598;-70
2022/07/18 11:32:10;;;;;;;0.40;0.40;;;29.70;64.10;;;;;;5067718;28;20200;-70
2022/07/18 11:35:00;;;;;;;0.40;0.40;;;29.50;65.00;;;;;;5066679;28;20452;-70
2022/07/18 11:37:49;;;;;;;0.90;0.90;;;29.60;65.50;;;;;;5053136;28;20572;-70
2022/07/18 11:40:47;;;;;;;0.40;0.40;;;29.70;64.20;;;;;;5050364;28;20704;-70
2022/07/18 11:43:36;;;;;;;0.40;0.40;;;29.80;64.80;;;;;;5051331;28;20681;-70
2022/07/18 11:46:25;;;;;;;0.40;0.40;;;30.20;63.30;;;;;;5049993;28;20235;-70
2022/07/18 11:49:13;;;;;;;0.40;0.40;;;30.30;62.60;;;;;;5051802;28;20532;-70
2022/07/18 11:52:04;;;;;;;0.40;0.40;;;30.80;64.10;;;;;;5050583;28;20301;-70
2022/07/18 11:54:52;;;;;;;0.68;0.68;;;31.10;62.70;;;;;;5051106;28;20208;-70
2022/07/18 11:57:40;;;;;;;0.40;0.40;;;31.20;63.10;;;;;;5052432;28;20216;-70
2022/07/18 12:00:28;;;;;;;0.40;0.40;;;31.20;61.80;;;;;;5050779;28;20212;-70
2022/07/18 12:03:18;;;;;;;3.50;1.35;;;31.10;59.30;;;;;;5055067;28;20201;-70
2022/07/18 12:06:11;;;;;;;0.77;0.77;;;31.10;57.90;;;;;;5054485;28;20209;-70
2022/07/18 12:09:03;;;;;;;0.40;0.40;;;30.50;59.20;;;;;;5051693;28;20221;-70
2022/07/18 12:11:51;;;;;;;0.40;0.40;;;30.30;59.50;;;;;;5051453;28;20366;-70
2022/07/18 12:15:02;;;;;;;0.40;0.40;;;30.60;59.50;;;;;;5050782;28;20229;-70
2022/07/18 12:17:50;;;;;;;1.35;0.98;;;30.80;59.20;;;;;;5050571;28;20201;-70
2022/07/18 12:20:38;;;;;;;0.82;0.82;;;31.00;59.00;;;;;;5055768;28;20188;-70
2022/07/18 12:23:29;;;;;;;0.40;0.40;;;30.90;57.80;;;;;;5062247;28;20661;-70
2022/07/18 12:26:29;;;;;;;0.40;0.40;;;30.70;58.40;;;;;;5059767;28;20205;-70
2022/07/18 12:29:58;;;;;;;0.40;0.40;;;30.60;58.80;;;;;;5057549;28;20228;-70
2022/07/18 12:32:50;;;;;;;0.40;0.40;;;30.80;59.00;;;;;;5058547;28;20202;-70
2022/07/18 12:35:39;;;;;;;0.40;0.40;;;31.10;60.30;;;;;;5060511;28;20197;-70
2022/07/18 12:38:28;;;;;;;0.40;0.40;;;31.30;59.50;;;;;;5061221;28;20720;-70
2022/07/18 12:41:27;;;;;;;0.40;0.40;;;31.60;58.90;;;;;;5058739;28;20197;-70
2022/07/18 12:44:17;;;;;;;0.40;0.40;;;32.00;58.60;;;;;;5059818;28;20212;-70
2022/07/18 12:47:05;;;;;;;0.50;0.50;;;33.10;58.10;;;;;;5059278;28;20204;-71
2022/07/18 12:49:53;;;;;;;0.40;0.40;;;33.60;57.00;;;;;;5062633;28;20221;-71
2022/07/18 12:52:42;;;;;;;0.40;0.40;;;33.70;54.90;;;;;;5064708;28;20197;-71
2022/07/18 12:55:30;;;;;;;0.80;0.80;;;33.50;53.50;;;;;;5069841;28;20699;-71
2022/07/18 12:58:19;;;;;;;0.40;0.40;;;33.30;53.70;;;;;;5075738;28;20295;-71
2022/07/18 13:01:09;;;;;;;0.40;0.40;;;33.00;53.60;;;;;;5065948;28;20193;-70
2022/07/18 13:03:57;;;;;;;0.40;0.40;;;32.70;54.40;;;;;;5064444;28;20193;-70
2022/07/18 13:06:45;;;;;;;0.40;0.40;;;32.70;53.60;;;;;;5062474;28;20197;-70
2022/07/18 13:09:34;;;;;;;0.40;0.40;;;32.80;54.80;;;;;;5064851;28;20606;-70
2022/07/18 13:12:22;;;;;;;0.40;0.40;;;33.10;54.90;;;;;;5060676;28;20225;-71
2022/07/18 13:15:11;;;;;;;0.40;0.40;;;33.30;55.10;;;;;;5063884;28;20204;-70
2022/07/18 13:18:00;;;;;;;0.40;0.40;;;33.30;54.40;;;;;;5060403;28;20197;-71
2022/07/18 13:20:48;;;;;;;0.40;0.40;;;33.50;54.70;;;;;;5062945;28;20200;-70
2022/07/18 13:23:37;;;;;;;0.40;0.40;;;33.80;54.60;;;;;;5062558;28;20197;-71
2022/07/18 13:26:25;;;;;;;0.40;0.40;;;34.20;54.10;;;;;;5061937;28;20193;-71
2022/07/18 13:29:13;;;;;;;0.40;0.40;;;34.50;53.50;;;;;;5064680;28;20225;-70
2022/07/18 13:32:03;;;;;;;0.50;0.50;;;34.50;53.60;;;;;;5052732;28;20718;-70
2022/07/18 13:34:52;;;;;;;0.40;0.40;;;34.20;54.30;;;;;;5072468;28;20280;-70
2022/07/18 13:37:41;;;;;;;0.40;0.40;;;34.10;53.40;;;;;;5074888;28;20275;-70
2022/07/18 13:40:29;;;;;;;0.40;0.40;;;34.10;53.00;;;;;;5057346;28;20224;-70
2022/07/18 13:43:17;;;;;;;0.40;0.40;;;34.10;54.10;;;;;;5056641;28;20197;-70
2022/07/18 13:46:06;;;;;;;5.07;2.40;;;34.10;53.20;;;;;;5061580;28;20190;-71
2022/07/18 13:48:55;;;;;;;0.40;0.40;;;34.00;54.00;;;;;;5062280;28;20213;-71
2022/07/18 13:51:44;;;;;;;0.40;0.40;;;34.30;53.30;;;;;;5056584;28;20225;-71
2022/07/18 13:54:32;;;;;;;0.40;0.40;;;34.70;53.40;;;;;;5053750;28;20201;-70
2022/07/18 13:57:21;;;;;;;0.60;0.60;;;35.20;52.90;;;;;;5063751;28;20208;-71
2022/07/18 14:00:10;;;;;;;0.40;0.40;;;35.80;51.60;;;;;;5033930;28;20627;-71
2022/07/18 14:02:58;;;;;;;0.50;0.50;;;36.70;51.20;;;;;;5034117;28;20575;-71
2022/07/18 14:05:47;;;;;;;0.40;0.40;;;37.90;50.10;;;;;;5034352;28;20285;-71
2022/07/18 14:08:37;;;;;;;0.40;0.40;;;39.10;47.60;;;;;;5052992;28;20332;-71
2022/07/18 14:11:25;;;;;;;0.40;0.40;;;39.30;45.90;;;;;;5060986;28;20299;-72
2022/07/18 14:14:13;;;;;;;0.75;0.75;;;38.40;45.20;;;;;;5061309;28;20209;-71
2022/07/18 14:17:01;;;;;;;0.47;0.47;;;38.00;45.90;;;;;;5061359;28;20218;-71
2022/07/18 14:19:49;;;;;;;0.40;0.40;;;37.90;45.20;;;;;;5033213;28;20225;-70
2022/07/18 14:22:38;;;;;;;0.40;0.40;;;37.90;46.10;;;;;;5033996;28;20252;-70
2022/07/18 14:25:28;;;;;;;0.52;0.52;;;37.10;46.50;;;;;;5054960;28;20302;-70
2022/07/18 14:28:16;;;;;;;0.60;0.60;;;36.20;46.40;;;;;;5053925;28;20713;-70
2022/07/18 14:31:04;;;;;;;4.22;1.25;;;35.10;47.70;;;;;;5052012;28;20696;-70
2022/07/18 14:33:53;;;;;;;0.50;0.50;;;34.30;48.30;;;;;;5052508;28;20205;-70
2022/07/18 14:36:41;;;;;;;1.50;1.40;;;34.00;48.80;;;;;;5053678;28;20269;-70
2022/07/18 14:39:29;;;;;;;0.63;0.63;;;33.60;49.40;;;;;;5053280;28;20240;-70
2022/07/18 14:42:18;;;;;;;0.40;0.40;;;33.70;50.40;;;;;;5055999;28;20200;-70
2022/07/18 14:45:08;;;;;;;0.40;0.40;;;34.50;49.40;;;;;;5054397;28;20233;-70
2022/07/18 14:47:56;;;;;;;0.40;0.40;;;35.70;49.40;;;;;;5058620;28;20205;-70